Ransom Canyon, Texas
Current Conditions -  °F | °C
As of 12:53 PM on Thursday 18 Dec 2014 (Local Time) from KLBB Reporting Station
Broken Clouds Broken Clouds  
Wind Chill: 53°   Ceiling: 30000
Heat Index: 53°   Visibility: 10mi
Dew Point: 31°   Wind: 9mph
Humidity: 43%   Direction: 330°NNW
Pressure: 30.08"   Gusts: 17mph
Location:  33.53°N, 101.68°W
Report Text: KLBB 181853Z 33008G15KT 10SM FEW150 SCT260 BKN300 12/M01 A3008 RMK AO2 SLP176 T01171006
Loading
Personal Weather Stations






























Interactive Weather Map New forecast layout! Learn more

10-Day Weather Forecast

Advertisements
Track Severe Weather on mobile